Valencia, California
Current Conditions -  °F | °C
As of 5:04 AM on Tuesday 21 Oct 2014 (Local Time) from KVNY Reporting Station
Moderate Fog Moderate Fog  
Wind Chill: 57°   Ceiling: 100
Heat Index: 57°   Visibility: 0.5mi
Dew Point: 54°   Wind: 0mph
Humidity: 89%   Direction: NA
Pressure: 29.89"   Gusts: NA
Location:  34.44°N, 118.61°W
Report Text: KVNY 211204Z 00000KT 1/2SM R16R/2000VP6000FT FG VV001 14/12 A2989 RMK AO2 T01390122
Loading
Personal Weather Stations






























Interactive Weather Map
Tropical Storm Tracking
New forecast layout! Learn more

10-Day Weather Forecast

Advertisements
Track Severe Weather on mobile